createdAt,value
2019-01-10T00:00:58.942Z,102501.75
2019-01-10T00:03:28.039Z,102508.49
2019-01-10T00:05:57.183Z,102507.16
2019-01-10T00:08:26.210Z,102515.92
2019-01-10T00:10:55.310Z,102515.92
2019-01-10T00:13:24.352Z,102513.81
2019-01-10T00:15:53.570Z,102518.41
2019-01-10T00:18:22.651Z,102519.26
2019-01-10T00:20:51.644Z,102510.00
2019-01-10T00:23:20.646Z,102514.53
2019-01-10T00:25:49.711Z,102507.39
2019-01-10T00:28:18.807Z,102510.72
2019-01-10T00:30:47.901Z,102516.98
2019-01-10T00:33:17.007Z,102516.98
2019-01-10T00:35:46.236Z,102516.10
2019-01-10T00:38:15.247Z,102517.80
2019-01-10T00:40:44.384Z,102523.17
2019-01-10T00:43:13.584Z,102523.17
2019-01-10T00:45:42.778Z,102526.52
2019-01-10T00:48:12.063Z,102526.03
2019-01-10T00:50:41.168Z,102528.14
2019-01-10T00:53:10.273Z,102528.55
2019-01-10T00:55:39.446Z,102528.55
2019-01-10T00:58:08.692Z,102533.09
2019-01-10T01:00:37.749Z,102527.16
2019-01-10T01:03:06.984Z,102533.02
2019-01-10T01:05:36.175Z,102532.88
2019-01-10T01:08:05.487Z,102532.38
2019-01-10T01:10:34.690Z,102540.27
2019-01-10T01:13:03.787Z,102539.78
2019-01-10T01:15:32.975Z,102539.78
2019-01-10T01:18:02.226Z,102542.66
2019-01-10T01:20:31.319Z,102546.31
2019-01-10T01:23:00.393Z,102546.31
2019-01-10T01:25:29.576Z,102550.90
2019-01-10T01:27:58.762Z,102545.45
2019-01-10T01:30:27.962Z,102553.70
2019-01-10T01:32:57.107Z,102554.50
2019-01-10T01:35:26.178Z,102554.50
2019-01-10T01:37:55.377Z,102558.61
2019-01-10T01:40:24.556Z,102561.47
2019-01-10T01:42:53.708Z,102558.09
2019-01-10T01:45:22.955Z,102561.46
2019-01-10T01:47:52.048Z,102570.25
2019-01-10T01:50:23.044Z,102580.59
2019-01-10T01:52:53.693Z,102581.31
2019-01-10T01:55:23.048Z,102578.86
2019-01-10T01:57:52.358Z,102583.81
2019-01-10T02:00:23.441Z,102583.81
2019-01-10T02:02:53.839Z,102595.87
2019-01-10T02:05:23.036Z,102599.17
2019-01-10T02:07:52.537Z,102600.81
2019-01-10T02:10:27.103Z,102600.81
2019-01-10T02:12:57.521Z,102603.41
2019-01-10T02:15:26.740Z,102605.45
2019-01-10T02:17:55.833Z,102600.03
2019-01-10T02:20:25.003Z,102595.13
2019-01-10T02:22:54.184Z,102596.34
2019-01-10T02:25:23.386Z,102596.86
2019-01-10T02:27:52.572Z,102592.23
2019-01-10T02:30:25.922Z,102599.49
2019-01-10T02:32:55.187Z,102604.98
2019-01-10T02:35:24.415Z,102606.63
2019-01-10T02:37:53.582Z,102606.63
2019-01-10T02:40:22.711Z,102615.44
2019-01-10T02:42:51.794Z,102614.19
2019-01-10T02:45:21.011Z,102617.88
2019-01-10T02:47:49.976Z,102625.55
2019-01-10T02:50:23.450Z,102615.89
2019-01-10T02:52:52.587Z,102618.47
2019-01-10T02:55:23.418Z,102610.07
2019-01-10T02:57:52.438Z,102599.64
2019-01-10T03:00:23.349Z,102599.64
2019-01-10T03:02:53.033Z,102599.75
2019-01-10T03:05:23.899Z,102599.75
2019-01-10T03:07:53.063Z,102605.69
2019-01-10T03:10:26.693Z,102614.05
2019-01-10T03:12:55.877Z,102609.02
2019-01-10T03:15:26.246Z,102622.89
2019-01-10T03:17:55.258Z,102619.63
2019-01-10T03:20:24.479Z,102616.27
2019-01-10T03:22:53.637Z,102612.11
2019-01-10T03:25:22.872Z,102608.38
2019-01-10T03:27:52.038Z,102608.38
2019-01-10T03:30:21.252Z,102597.05
2019-01-10T03:32:50.431Z,102590.83
2019-01-10T03:35:19.568Z,102590.83
2019-01-10T03:37:48.680Z,102595.02
2019-01-10T03:40:19.819Z,102586.20
2019-01-10T03:42:49.060Z,102595.34
2019-01-10T03:45:19.490Z,102596.20
2019-01-10T03:47:48.628Z,102581.92
2019-01-10T03:50:17.954Z,102590.33
2019-01-10T03:52:47.150Z,102590.33
2019-01-10T03:55:16.538Z,102589.52
2019-01-10T03:57:45.644Z,102589.52
2019-01-10T04:00:20.078Z,102618.78
2019-01-10T04:02:49.327Z,102613.80
2019-01-10T04:05:18.626Z,102613.80
2019-01-10T04:07:49.027Z,102610.48
2019-01-10T04:10:18.344Z,102610.48
2019-01-10T04:12:47.634Z,102615.94
2019-01-10T04:15:17.295Z,102620.95
2019-01-10T04:17:46.459Z,102615.53
2019-01-10T04:20:17.304Z,102614.27
2019-01-10T04:22:46.545Z,102614.27
2019-01-10T04:25:16.139Z,102609.23
2019-01-10T04:27:45.353Z,102615.42
2019-01-10T04:30:17.222Z,102618.78
2019-01-10T04:32:46.386Z,102615.52
2019-01-10T04:35:15.599Z,102609.23
2019-01-10T04:37:44.781Z,102609.23
2019-01-10T04:40:16.521Z,102605.46
2019-01-10T04:42:45.703Z,102605.46
2019-01-10T04:45:15.471Z,102615.47
2019-01-10T04:47:44.474Z,102615.47
2019-01-10T04:50:14.305Z,102611.65
2019-01-10T04:52:43.509Z,102611.65
2019-01-10T04:55:12.940Z,102609.98
2019-01-10T04:57:42.133Z,102612.49
2019-01-10T05:00:20.210Z,102613.23
2019-01-10T05:02:49.419Z,102609.53
2019-01-10T05:05:20.060Z,102609.53
2019-01-10T05:07:49.156Z,102612.95
2019-01-10T05:10:18.323Z,102612.95
2019-01-10T05:12:47.392Z,102617.08
2019-01-10T05:15:16.763Z,102620.84
2019-01-10T05:17:45.902Z,102619.70
2019-01-10T05:20:17.473Z,102617.59
2019-01-10T05:22:46.840Z,102623.06
2019-01-10T05:25:16.068Z,102618.84
2019-01-10T05:27:45.216Z,102618.84
2019-01-10T05:30:17.581Z,102622.32
2019-01-10T05:32:46.758Z,102622.32
2019-01-10T05:35:15.855Z,102625.70
2019-01-10T05:37:44.956Z,102625.25
2019-01-10T05:40:14.267Z,102623.14
2019-01-10T05:42:43.405Z,102611.82
2019-01-10T05:45:13.576Z,102613.13
2019-01-10T05:47:43.301Z,102606.83
2019-01-10T05:50:14.226Z,102606.83
2019-01-10T05:52:43.323Z,102605.98
2019-01-10T05:55:14.891Z,102621.94
2019-01-10T05:57:43.884Z,102632.00
2019-01-10T06:00:34.259Z,102628.27
2019-01-10T06:03:03.233Z,102628.27
2019-01-10T06:05:33.742Z,102632.90
2019-01-10T06:08:02.900Z,102645.48
2019-01-10T06:10:32.126Z,102645.48
2019-01-10T06:13:01.264Z,102657.20
2019-01-10T06:15:30.339Z,102657.20
2019-01-10T06:17:59.519Z,102653.42
2019-01-10T06:20:28.651Z,102670.59
2019-01-10T06:22:57.829Z,102670.59
2019-01-10T06:25:26.844Z,102654.30
2019-01-10T06:27:55.879Z,102654.30
2019-01-10T06:30:25.456Z,102663.09
2019-01-10T06:32:54.625Z,102662.69
2019-01-10T06:35:23.780Z,102664.36
2019-01-10T06:37:52.942Z,102666.82
2019-01-10T06:40:22.823Z,102658.05
2019-01-10T06:42:51.918Z,102660.64
2019-01-10T06:45:21.129Z,102660.64
2019-01-10T06:47:50.239Z,102668.64
2019-01-10T06:50:19.345Z,102673.20
2019-01-10T06:52:48.495Z,102668.59
2019-01-10T06:55:17.602Z,102677.00
2019-01-10T06:57:46.778Z,102673.67
2019-01-10T07:00:18.754Z,102673.68
2019-01-10T07:02:48.601Z,102684.61
2019-01-10T07:05:17.642Z,102670.76
2019-01-10T07:07:55.814Z,102670.76
2019-01-10T07:10:23.152Z,102681.16
2019-01-10T07:12:52.393Z,102682.84
2019-01-10T07:15:21.829Z,102682.43
2019-01-10T07:17:50.904Z,102682.43
2019-01-10T07:20:21.063Z,102682.94
2019-01-10T07:22:51.637Z,102687.52
2019-01-10T07:25:20.840Z,102687.52
2019-01-10T07:27:50.117Z,102693.39
2019-01-10T07:30:35.535Z,102693.39
2019-01-10T07:32:57.318Z,102696.31
2019-01-10T07:35:26.412Z,102696.31
2019-01-10T07:37:57.325Z,102699.70
2019-01-10T07:40:27.472Z,102700.56
2019-01-10T07:42:56.892Z,102700.56
2019-01-10T07:45:27.364Z,102699.30
2019-01-10T07:47:56.557Z,102707.30
2019-01-10T07:50:36.712Z,102700.55
2019-01-10T07:53:10.777Z,102707.70
2019-01-10T07:55:40.866Z,102706.89
2019-01-10T07:58:10.098Z,102712.73
2019-01-10T08:00:39.276Z,102712.73
2019-01-10T08:03:08.768Z,102718.67
2019-01-10T08:05:38.273Z,102723.71
2019-01-10T08:08:08.846Z,102727.03
2019-01-10T08:10:38.700Z,102729.55
2019-01-10T08:13:08.154Z,102729.55
2019-01-10T08:15:37.448Z,102738.00
2019-01-10T08:18:06.603Z,102735.09
2019-01-10T08:20:35.703Z,102742.66
2019-01-10T08:23:05.345Z,102745.97
2019-01-10T08:25:34.499Z,102747.74
2019-01-10T08:28:03.861Z,102747.74
2019-01-10T08:30:33.162Z,102750.32
2019-01-10T08:33:02.304Z,102752.84
2019-01-10T08:35:31.544Z,102752.84
2019-01-10T08:38:00.760Z,102761.70
2019-01-10T08:40:29.951Z,102765.47
2019-01-10T08:42:59.088Z,102764.68
2019-01-10T08:45:28.222Z,102764.68
2019-01-10T08:47:57.267Z,102767.21
2019-01-10T08:50:27.976Z,102767.66
2019-01-10T08:52:57.227Z,102763.03
2019-01-10T08:55:26.361Z,102766.45
2019-01-10T08:57:55.445Z,102766.45
2019-01-10T09:00:25.465Z,102763.55
2019-01-10T09:02:55.493Z,102757.30
2019-01-10T09:05:24.687Z,102758.56
2019-01-10T09:07:53.898Z,102755.30
2019-01-10T09:10:25.223Z,102759.08
2019-01-10T09:12:54.469Z,102762.45
2019-01-10T09:15:33.874Z,102758.33
2019-01-10T09:17:54.604Z,102767.59
2019-01-10T09:20:24.926Z,102767.59
2019-01-10T09:22:54.137Z,102768.91
2019-01-10T09:25:23.370Z,102774.39
2019-01-10T09:27:52.508Z,102774.39
2019-01-10T09:30:22.699Z,102778.27
2019-01-10T09:32:51.921Z,102778.27
2019-01-10T09:35:21.146Z,102778.68
2019-01-10T09:37:50.463Z,102788.00
2019-01-10T09:40:20.844Z,102788.00
2019-01-10T09:42:50.055Z,102783.01
2019-01-10T09:45:21.421Z,102778.38
2019-01-10T09:47:50.768Z,102780.14
2019-01-10T09:50:21.871Z,102777.22
2019-01-10T09:52:51.106Z,102777.22
2019-01-10T09:55:20.421Z,102783.16
2019-01-10T09:57:49.650Z,102779.41
2019-01-10T10:00:30.003Z,102787.48
2019-01-10T10:02:59.196Z,102785.84
2019-01-10T10:05:31.518Z,102785.84
2019-01-10T10:08:00.617Z,102785.89
2019-01-10T10:10:32.647Z,102783.41
2019-01-10T10:13:01.846Z,102780.52
2019-01-10T10:15:31.971Z,102780.52
2019-01-10T10:18:01.114Z,102787.32
2019-01-10T10:20:30.323Z,102787.32
2019-01-10T10:22:59.492Z,102791.59
2019-01-10T10:25:28.612Z,102780.27
2019-01-10T10:27:57.749Z,102780.27
2019-01-10T10:30:26.882Z,102781.12
2019-01-10T10:32:56.036Z,102781.12
2019-01-10T10:35:25.550Z,102784.12
2019-01-10T10:37:54.783Z,102779.55
2019-01-10T10:40:23.967Z,102772.87
2019-01-10T10:42:53.761Z,102772.87
2019-01-10T10:45:23.313Z,102773.31
2019-01-10T10:47:52.666Z,102773.31
2019-01-10T10:50:24.615Z,102771.25
2019-01-10T10:52:53.855Z,102770.02
2019-01-10T10:55:23.091Z,102766.73
2019-01-10T10:57:52.281Z,102766.73
2019-01-10T11:00:23.875Z,102770.98
2019-01-10T11:02:53.270Z,102770.98
2019-01-10T11:05:22.459Z,102773.96
2019-01-10T11:07:51.684Z,102772.31
2019-01-10T11:10:21.388Z,102772.31
2019-01-10T11:12:50.658Z,102766.02
2019-01-10T11:15:20.073Z,102756.78
2019-01-10T11:17:49.830Z,102756.84
2019-01-10T11:20:20.708Z,102750.96
2019-01-10T11:22:50.043Z,102750.96
2019-01-10T11:25:24.658Z,102751.39
2019-01-10T11:27:53.905Z,102745.95
2019-01-10T11:30:23.031Z,102747.64
2019-01-10T11:32:53.772Z,102744.27
2019-01-10T11:35:23.110Z,102744.27
2019-01-10T11:37:52.291Z,102748.92
2019-01-10T11:40:22.408Z,102748.92
2019-01-10T11:42:51.606Z,102747.26
2019-01-10T11:45:23.041Z,102744.73
2019-01-10T11:47:52.087Z,102744.73
2019-01-10T11:50:21.537Z,102742.20
2019-01-10T11:52:50.711Z,102737.16
2019-01-10T11:55:19.821Z,102740.11
2019-01-10T11:57:48.975Z,102740.11
2019-01-10T12:00:26.707Z,102729.16
2019-01-10T12:02:55.871Z,102730.41
2019-01-10T12:05:25.117Z,102726.19
2019-01-10T12:07:54.333Z,102726.19
2019-01-10T12:10:25.559Z,102723.67
2019-01-10T12:12:54.856Z,102723.67
2019-01-10T12:15:23.947Z,102726.62
2019-01-10T12:17:53.439Z,102717.33
2019-01-10T12:20:22.632Z,102726.19
2019-01-10T12:22:51.752Z,102726.19
2019-01-10T12:25:20.870Z,102716.91
2019-01-10T12:27:50.489Z,102720.70
2019-01-10T12:30:21.827Z,102712.69
2019-01-10T12:32:51.036Z,102711.02
2019-01-10T12:35:20.349Z,102718.16
2019-01-10T12:37:49.559Z,102700.44
2019-01-10T12:40:18.832Z,102700.44
2019-01-10T12:42:48.065Z,102703.80
2019-01-10T12:45:18.257Z,102695.75
2019-01-10T12:47:47.465Z,102695.75
2019-01-10T12:50:19.318Z,102699.98
2019-01-10T12:52:48.458Z,102699.98
2019-01-10T12:55:20.545Z,102702.93
2019-01-10T12:57:49.726Z,102705.05
2019-01-10T13:00:21.399Z,102702.93
2019-01-10T13:02:50.604Z,102698.70
2019-01-10T13:05:19.899Z,102698.70
2019-01-10T13:07:49.162Z,102697.84
2019-01-10T13:10:19.782Z,102698.27
2019-01-10T13:12:49.604Z,102705.02
2019-01-10T13:15:21.138Z,102706.31
2019-01-10T13:17:50.364Z,102706.31
2019-01-10T13:20:20.935Z,102705.46
2019-01-10T13:22:50.122Z,102702.91
2019-01-10T13:25:19.998Z,102705.91
2019-01-10T13:27:49.839Z,102704.63
2019-01-10T13:30:20.971Z,102704.63
2019-01-10T13:32:50.299Z,102706.28
2019-01-10T13:35:19.475Z,102709.66
2019-01-10T13:37:48.705Z,102710.08
2019-01-10T13:40:18.181Z,102710.94
2019-01-10T13:42:47.485Z,102700.40
2019-01-10T13:45:16.900Z,102707.13
2019-01-10T13:47:48.421Z,102709.66
2019-01-10T13:50:19.892Z,102709.66
2019-01-10T13:52:49.074Z,102707.55
2019-01-10T13:55:18.581Z,102711.80
2019-01-10T13:57:47.799Z,102715.14
2019-01-10T14:00:35.703Z,102715.14
2019-01-10T14:03:04.066Z,102712.20
2019-01-10T14:05:33.163Z,102718.95
2019-01-10T14:08:02.341Z,102716.84
2019-01-10T14:10:31.590Z,102718.94
2019-01-10T14:13:00.803Z,102717.28
2019-01-10T14:15:35.306Z,102717.28
2019-01-10T14:18:05.390Z,102721.11
2019-01-10T14:20:34.818Z,102716.88
2019-01-10T14:23:04.103Z,102716.88
2019-01-10T14:25:34.227Z,102714.80
2019-01-10T14:28:03.423Z,102714.80
2019-01-10T14:30:39.956Z,102722.81
2019-01-10T14:33:14.658Z,102724.91
2019-01-10T14:35:43.840Z,102715.64
2019-01-10T14:38:13.331Z,102712.27
2019-01-10T14:40:42.545Z,102712.27
2019-01-10T14:43:12.970Z,102716.09
2019-01-10T14:45:43.459Z,102714.83
2019-01-10T14:48:12.818Z,102714.83
2019-01-10T14:50:41.901Z,102719.03
2019-01-10T14:53:11.083Z,102713.55
2019-01-10T14:55:40.282Z,102714.81
2019-01-10T14:58:09.494Z,102714.81
2019-01-10T15:00:38.795Z,102716.93
2019-01-10T15:03:07.994Z,102718.17
2019-01-10T15:05:37.201Z,102721.13
2019-01-10T15:08:06.376Z,102721.13
2019-01-10T15:10:36.007Z,102714.37
2019-01-10T15:13:05.777Z,102714.37
2019-01-10T15:15:34.965Z,102702.59
2019-01-10T15:18:04.349Z,102702.59
2019-01-10T15:20:33.633Z,102696.25
2019-01-10T15:23:02.848Z,102699.64
2019-01-10T15:25:32.014Z,102697.52
2019-01-10T15:28:01.232Z,102697.52
2019-01-10T15:30:30.344Z,102696.70
2019-01-10T15:32:59.559Z,102694.56
2019-01-10T15:35:28.882Z,102697.52
2019-01-10T15:37:58.067Z,102693.72
2019-01-10T15:40:30.852Z,102698.35
2019-01-10T15:43:00.100Z,102693.73
2019-01-10T15:45:29.381Z,102693.73
2019-01-10T15:47:58.620Z,102696.67
2019-01-10T15:50:27.723Z,102696.67
2019-01-10T15:52:57.035Z,102703.84
2019-01-10T15:55:26.233Z,102697.95
2019-01-10T15:57:55.460Z,102701.73
2019-01-10T16:00:24.958Z,102694.16
2019-01-10T16:02:54.103Z,102694.13
2019-01-10T16:05:23.311Z,102694.13
2019-01-10T16:07:52.458Z,102696.67
2019-01-10T16:10:21.784Z,102695.81
2019-01-10T16:12:51.264Z,102695.81
2019-01-10T16:15:22.443Z,102689.91
2019-01-10T16:17:51.598Z,102692.03
2019-01-10T16:20:21.038Z,102686.55
2019-01-10T16:22:50.508Z,102686.55
2019-01-10T16:25:19.895Z,102685.70
2019-01-10T16:27:49.173Z,102686.12
2019-01-10T16:30:20.519Z,102683.17
2019-01-10T16:32:49.634Z,102683.17
2019-01-10T16:35:18.815Z,102692.44
2019-01-10T16:37:48.013Z,102692.02
2019-01-10T16:40:17.321Z,102692.02
2019-01-10T16:42:46.502Z,102695.40
2019-01-10T16:45:36.263Z,102688.66
2019-01-10T16:48:05.977Z,102690.36
2019-01-10T16:50:35.107Z,102690.36
2019-01-10T16:53:04.254Z,102692.88
2019-01-10T16:55:34.928Z,102693.30
2019-01-10T16:58:04.337Z,102689.92
2019-01-10T17:00:34.776Z,102692.88
2019-01-10T17:03:04.314Z,102692.44
2019-01-10T17:05:33.642Z,102692.44
2019-01-10T17:08:03.016Z,102694.54
2019-01-10T17:10:32.172Z,102692.45
2019-01-10T17:13:01.386Z,102687.80
2019-01-10T17:17:58.507Z,102685.28
2019-01-10T17:20:29.357Z,102679.79
2019-01-10T17:22:59.102Z,102679.79
2019-01-10T17:25:31.493Z,102685.28
2019-01-10T17:28:00.640Z,102685.28
2019-01-10T17:30:31.106Z,102678.55
2019-01-10T17:33:00.743Z,102672.20
2019-01-10T17:35:34.458Z,102672.20
2019-01-10T17:38:04.535Z,102665.47
2019-01-10T17:40:33.998Z,102665.47
2019-01-10T17:43:04.034Z,102671.38
2019-01-10T17:45:36.181Z,102672.20
2019-01-10T17:48:08.049Z,102670.92
2019-01-10T17:50:37.246Z,102670.92
2019-01-10T17:53:06.384Z,102672.62
2019-01-10T17:55:35.632Z,102672.20
2019-01-10T17:58:05.577Z,102670.09
2019-01-10T18:00:34.840Z,102674.31
2019-01-10T18:03:04.292Z,102673.44
2019-01-10T18:05:33.504Z,102675.58
2019-01-10T18:08:02.661Z,102671.34
2019-01-10T18:10:31.912Z,102671.34
2019-01-10T18:13:01.054Z,102674.72
2019-01-10T18:15:30.210Z,102674.72
2019-01-10T18:17:59.438Z,102675.97
2019-01-10T18:20:35.976Z,102674.70
2019-01-10T18:23:05.539Z,102676.84
2019-01-10T18:25:34.948Z,102676.84
2019-01-10T18:28:04.860Z,102677.66
2019-01-10T18:30:35.548Z,102677.66
2019-01-10T18:33:04.727Z,102680.61
2019-01-10T18:35:33.977Z,102682.72
2019-01-10T18:38:03.141Z,102680.17
2019-01-10T18:40:32.262Z,102680.17
2019-01-10T18:43:01.283Z,102684.81
2019-01-10T18:45:32.204Z,102684.81
2019-01-10T18:48:01.386Z,102684.81
2019-01-10T18:50:30.836Z,102682.70
2019-01-10T18:53:00.040Z,102685.68
2019-01-10T18:55:29.121Z,102685.64
2019-01-10T18:57:58.105Z,102680.59
2019-01-10T19:00:29.152Z,102680.59
2019-01-10T19:02:59.418Z,102685.22
2019-01-10T19:05:29.795Z,102684.80
2019-01-10T19:07:59.063Z,102678.47
2019-01-10T19:10:29.383Z,102679.73
2019-01-10T19:12:58.612Z,102679.72
2019-01-10T19:15:27.906Z,102679.72
2019-01-10T19:18:03.101Z,102678.44
2019-01-10T19:20:29.253Z,102671.70
2019-01-10T19:23:00.530Z,102684.37
2019-01-10T19:25:29.716Z,102684.37
2019-01-10T19:27:58.901Z,102675.94
2019-01-10T19:30:33.514Z,102676.78
2019-01-10T19:33:02.671Z,102676.78
2019-01-10T19:35:31.835Z,102668.78
2019-01-10T19:38:01.164Z,102671.75
2019-01-10T19:40:31.554Z,102668.38
2019-01-10T19:43:00.713Z,102669.59
2019-01-10T19:45:29.956Z,102668.30
2019-01-10T19:47:59.077Z,102668.30
2019-01-10T19:50:28.435Z,102672.11
2019-01-10T19:52:57.600Z,102672.12
2019-01-10T19:55:26.807Z,102672.12
2019-01-10T19:57:55.861Z,102668.37
2019-01-10T20:00:30.598Z,102665.41
2019-01-10T20:02:59.919Z,102664.13
2019-01-10T20:05:29.014Z,102664.13
2019-01-10T20:07:59.547Z,102665.38
2019-01-10T20:10:28.695Z,102665.38
2019-01-10T20:12:57.857Z,102662.03
2019-01-10T20:15:26.947Z,102664.98
2019-01-10T20:17:56.996Z,102657.83
2019-01-10T20:20:38.709Z,102655.72
2019-01-10T20:23:10.186Z,102655.72
2019-01-10T20:25:39.695Z,102654.88
2019-01-10T20:28:10.966Z,102655.28
2019-01-10T20:30:42.915Z,102653.20
2019-01-10T20:33:12.065Z,102650.68
2019-01-10T20:35:41.876Z,102650.68
2019-01-10T20:38:12.393Z,102653.61
2019-01-10T20:40:41.603Z,102640.57
2019-01-10T20:43:10.856Z,102645.22
2019-01-10T20:45:39.935Z,102645.22
2019-01-10T20:48:09.030Z,102641.84
2019-01-10T20:50:38.068Z,102639.73
2019-01-10T20:53:07.273Z,102638.50
2019-01-10T20:55:36.492Z,102638.90
2019-01-10T20:58:05.944Z,102638.90
2019-01-10T21:00:35.529Z,102636.37
2019-01-10T21:03:04.702Z,102630.90
2019-01-10T21:05:33.825Z,102630.08
2019-01-10T21:08:02.970Z,102630.08
2019-01-10T21:10:33.769Z,102630.48
2019-01-10T21:13:03.010Z,102630.48
2019-01-10T21:15:33.080Z,102623.35
2019-01-10T21:18:02.213Z,102615.75
2019-01-10T21:20:31.436Z,102615.75
2019-01-10T21:23:00.535Z,102620.80
2019-01-10T21:25:29.698Z,102616.61
2019-01-10T21:27:58.816Z,102617.44
2019-01-10T21:30:28.016Z,102615.77
2019-01-10T21:32:57.165Z,102615.77
2019-01-10T21:35:26.913Z,102611.96
2019-01-10T21:37:56.018Z,102608.19
2019-01-10T21:40:25.393Z,102608.17
2019-01-10T21:42:54.681Z,102611.14
2019-01-10T21:45:24.338Z,102609.87
2019-01-10T21:47:53.493Z,102609.87
2019-01-10T21:50:24.818Z,102608.62
2019-01-10T21:52:54.070Z,102609.87
2019-01-10T21:55:23.255Z,102611.12
2019-01-10T21:57:53.413Z,102606.92
2019-01-10T22:00:31.670Z,102600.17
2019-01-10T22:03:02.792Z,102601.02
2019-01-10T22:05:32.118Z,102599.34
2019-01-10T22:08:04.347Z,102602.28
2019-01-10T22:10:35.116Z,102602.28
2019-01-10T22:13:04.790Z,102601.02
2019-01-10T22:15:34.009Z,102591.33
2019-01-10T22:18:03.232Z,102591.77
2019-01-10T22:20:33.095Z,102591.77
2019-01-10T22:23:02.182Z,102592.58
2019-01-10T22:25:31.857Z,102593.02
2019-01-10T22:28:00.903Z,102593.02
2019-01-10T22:30:30.243Z,102586.27
2019-01-10T22:32:59.294Z,102586.30
2019-01-10T22:35:28.543Z,102583.34
2019-01-10T22:37:58.503Z,102578.72
2019-01-10T22:40:27.727Z,102578.28
2019-01-10T22:42:56.870Z,102578.28
2019-01-10T22:45:26.565Z,102579.55
2019-01-10T22:47:56.711Z,102572.80
2019-01-10T22:50:27.996Z,102572.80
2019-01-10T22:52:57.069Z,102571.14
2019-01-10T22:55:26.163Z,102571.14
2019-01-10T22:57:55.345Z,102573.66
2019-01-10T23:00:52.164Z,102567.78
2019-01-10T23:03:21.454Z,102563.98
2019-01-10T23:05:50.798Z,102565.66
2019-01-10T23:08:21.209Z,102562.30
2019-01-10T23:10:55.336Z,102554.72
2019-01-10T23:13:24.699Z,102558.50
2019-01-10T23:15:53.964Z,102549.23
2019-01-10T23:18:24.492Z,102553.45
2019-01-10T23:20:59.770Z,102553.45
2019-01-10T23:23:28.905Z,102551.34
2019-01-10T23:25:57.990Z,102544.61
2019-01-10T23:28:28.526Z,102544.60
2019-01-10T23:30:59.387Z,102544.60
2019-01-10T23:33:28.801Z,102533.66
2019-01-10T23:36:00.593Z,102533.66
2019-01-10T23:38:31.299Z,102537.02
2019-01-10T23:41:01.066Z,102526.07
2019-01-10T23:43:30.187Z,102531.97
2019-01-10T23:45:59.384Z,102531.97
2019-01-10T23:48:28.522Z,102526.06
2019-01-10T23:50:57.715Z,102524.80
2019-01-10T23:53:26.988Z,102524.80
2019-01-10T23:55:56.128Z,102522.29
2019-01-10T23:58:26.550Z,102518.91
